Time;durP1;ratioP1;P1;durP2;ratioP2;P2;SDS_P1;SDS_P2;PMS_P1;PMS_P2;Temp;Humidity;BMP_temperature;BMP_pressure;BME280_temperature;BME280_humidity;BME280_pressure;Samples;Min_cycle;Max_cycle;Signal;HPM_P1;HPM_P2
2023/09/30 00:00:17;;;;;;;;;;;19.40;75.80;;;;;;5012469;28;20504;-83
2023/09/30 00:02:57;;;;;;;10.95;5.25;;;19.40;75.80;;;;;;5041487;28;19921;-83
2023/09/30 00:05:38;;;;;;;9.73;4.90;;;19.40;76.10;;;;;;5048848;28;20122;-82
2023/09/30 00:08:45;;;;;;;9.80;4.53;;;19.40;76.00;;;;;;5030972;28;20056;-82
2023/09/30 00:11:24;;;;;;;8.23;4.95;;;19.40;75.40;;;;;;5033156;28;20064;-84
2023/09/30 00:19:23;;;;;;;12.98;5.93;;;19.30;75.50;;;;;;5072565;28;20059;-92
2023/09/30 00:23:42;;;;;;;8.75;4.78;;;19.30;75.30;;;;;;5038216;28;20098;-87
2023/09/30 00:36:19;;;;;;;8.02;4.53;;;19.00;78.10;;;;;;4993155;28;20041;-90
2023/09/30 00:45:29;;;;;;;10.18;5.63;;;18.80;78.60;;;;;;4928382;29;20113;-89
2023/09/30 00:53:34;;;;;;;9.70;5.20;;;18.80;79.00;;;;;;4907203;29;20042;-87
2023/09/30 00:58:01;;;;;;;12.25;5.15;;;18.90;78.60;;;;;;4877215;29;20056;-86
2023/09/30 01:19:46;;;;;;;7.32;4.20;;;18.40;78.70;;;;;;4982846;28;20604;-88
2023/09/30 01:23:11;;;;;;;13.35;4.47;;;18.20;79.70;;;;;;4955614;28;20114;-84
2023/09/30 01:30:18;;;;;;;9.40;4.78;;;18.20;80.70;;;;;;4944130;28;20100;-85
2023/09/30 01:32:48;;;;;;;7.93;4.70;;;18.20;80.60;;;;;;4980715;28;20049;-84
2023/09/30 01:35:25;;;;;;;9.65;4.70;;;18.00;81.20;;;;;;4995502;28;20076;-85
2023/09/30 01:42:19;;;;;;;10.23;5.25;;;18.10;81.80;;;;;;5035621;28;20079;-83
2023/09/30 01:49:45;;;;;;;7.82;4.80;;;18.00;82.00;;;;;;5078121;28;20109;-85
2023/09/30 01:54:22;;;;;;;7.63;4.55;;;18.10;81.50;;;;;;5039848;28;20044;-88
2023/09/30 01:58:38;;;;;;;9.13;4.65;;;18.10;80.80;;;;;;5072777;28;20486;-89
2023/09/30 02:05:18;;;;;;;9.27;5.15;;;17.90;81.80;;;;;;5083945;28;20040;-87
2023/09/30 02:08:05;;;;;;;8.30;4.65;;;17.70;82.50;;;;;;5067114;28;20560;-86
2023/09/30 02:10:54;;;;;;;10.70;5.15;;;17.70;82.50;;;;;;5068810;28;20068;-89
2023/09/30 02:13:21;;;;;;;9.55;5.03;;;17.70;83.00;;;;;;5063139;28;20101;-87
2023/09/30 02:15:50;;;;;;;12.00;4.93;;;17.60;83.30;;;;;;5076297;28;20079;-88
2023/09/30 02:18:23;;;;;;;9.95;5.50;;;17.70;83.10;;;;;;5039669;28;20039;-89
2023/09/30 02:21:44;;;;;;;17.63;5.85;;;17.80;82.60;;;;;;5072430;28;20186;-88
2023/09/30 02:25:07;;;;;;;11.48;4.68;;;17.90;82.70;;;;;;5052765;28;20381;-87
2023/09/30 02:29:24;;;;;;;9.85;4.32;;;17.90;82.10;;;;;;5103881;28;20048;-89
2023/09/30 02:32:46;;;;;;;9.57;5.18;;;17.90;82.70;;;;;;5075765;28;20071;-87
2023/09/30 02:36:16;;;;;;;11.27;5.15;;;17.90;82.20;;;;;;5071337;28;20087;-88
2023/09/30 02:39:02;;;;;;;9.38;5.25;;;17.80;82.40;;;;;;5037154;28;20048;-88
2023/09/30 02:42:16;;;;;;;9.55;4.80;;;17.70;82.60;;;;;;5032677;28;20049;-85
2023/09/30 02:45:22;;;;;;;10.63;5.00;;;17.50;82.60;;;;;;5043830;28;20049;-83
2023/09/30 02:48:15;;;;;;;9.02;4.95;;;17.60;83.60;;;;;;5049570;28;20731;-85
2023/09/30 02:51:19;;;;;;;11.98;5.03;;;17.30;84.40;;;;;;5047069;28;20577;-85
2023/09/30 03:11:56;;;;;;;11.25;5.38;;;17.20;85.90;;;;;;5063326;28;20048;-84
2023/09/30 03:15:52;;;;;;;8.23;5.53;;;17.10;86.50;;;;;;4989316;28;20050;-84
2023/09/30 03:23:44;;;;;;;11.13;5.57;;;17.20;85.90;;;;;;4839344;29;20186;-84
2023/09/30 03:26:35;;;;;;;12.15;5.78;;;17.20;86.10;;;;;;4869527;29;20056;-86
2023/09/30 03:29:13;;;;;;;9.30;5.47;;;17.20;85.80;;;;;;4885636;29;20044;-86
2023/09/30 03:32:01;;;;;;;14.20;5.28;;;17.20;85.90;;;;;;4874529;29;20052;-83
2023/09/30 03:34:44;;;;;;;10.98;5.97;;;17.30;85.60;;;;;;4906898;29;20111;-84
2023/09/30 03:37:46;;;;;;;8.60;5.28;;;17.20;86.30;;;;;;4904000;29;20056;-86
2023/09/30 03:40:33;;;;;;;13.38;5.65;;;16.90;87.10;;;;;;4906186;29;20048;-86
2023/09/30 03:43:53;;;;;;;14.73;5.18;;;17.00;86.80;;;;;;4890357;29;20374;-84
2023/09/30 03:46:59;;;;;;;8.30;5.00;;;17.10;86.30;;;;;;4888814;29;20048;-87
2023/09/30 03:49:45;;;;;;;12.23;4.85;;;17.20;85.90;;;;;;4911596;29;20544;-90
2023/09/30 03:52:29;;;;;;;9.15;5.00;;;17.20;86.00;;;;;;4922484;28;20047;-89
2023/09/30 03:55:06;;;;;;;9.85;5.43;;;17.10;86.30;;;;;;4975040;28;20088;-88
2023/09/30 03:57:40;;;;;;;8.82;4.70;;;16.80;87.60;;;;;;5023571;28;20045;-85
2023/09/30 04:00:15;;;;;;;9.52;5.03;;;16.90;88.00;;;;;;5080205;28;20051;-85
2023/09/30 04:02:59;;;;;;;7.63;4.68;;;17.00;88.00;;;;;;5091404;27;20558;-81
2023/09/30 04:05:36;;;;;;;10.15;5.25;;;16.90;88.60;;;;;;5091189;28;20055;-85
2023/09/30 04:09:03;;;;;;;10.57;5.55;;;17.00;88.50;;;;;;5085574;27;20039;-87
2023/09/30 04:13:04;;;;;;;7.07;4.95;;;17.10;87.70;;;;;;5079844;28;20073;-91
2023/09/30 04:16:28;;;;;;;8.48;5.20;;;17.10;88.30;;;;;;5071856;28;20055;-89
2023/09/30 04:20:23;;;;;;;8.02;4.57;;;17.20;88.20;;;;;;5069309;28;20082;-87
2023/09/30 04:24:12;;;;;;;10.23;5.68;;;17.10;88.90;;;;;;5083280;28;20070;-85
2023/09/30 04:28:04;;;;;;;8.55;5.43;;;17.20;89.10;;;;;;5086715;28;20123;-87
2023/09/30 04:31:18;;;;;;;8.93;4.93;;;17.10;89.70;;;;;;5073973;28;20075;-83
2023/09/30 04:34:46;;;;;;;7.95;5.35;;;17.20;89.80;;;;;;5068969;28;20396;-89
2023/09/30 04:38:11;;;;;;;11.13;5.28;;;17.10;90.10;;;;;;5102745;28;20437;-83
2023/09/30 04:42:16;;;;;;;9.68;5.45;;;16.90;90.20;;;;;;5085398;28;20571;-87
2023/09/30 04:46:09;;;;;;;14.18;5.85;;;17.00;90.50;;;;;;5042919;28;20051;-87
2023/09/30 04:50:51;;;;;;;10.57;4.88;;;16.90;90.60;;;;;;5009013;28;20050;-89
2023/09/30 04:54:30;;;;;;;11.32;5.03;;;16.70;91.00;;;;;;5028090;28;20049;-90
2023/09/30 04:57:13;;;;;;;12.80;6.00;;;16.90;91.20;;;;;;4997241;28;20064;-87
2023/09/30 05:01:04;;;;;;;14.30;6.40;;;16.80;91.10;;;;;;5019585;28;20056;-92
2023/09/30 05:04:37;;;;;;;13.02;5.93;;;16.80;91.10;;;;;;5012584;28;20120;-88
2023/09/30 05:08:32;;;;;;;12.70;5.90;;;16.80;90.80;;;;;;4959140;28;20042;-92
2023/09/30 05:11:00;;;;;;;13.23;6.63;;;16.90;90.50;;;;;;4968684;28;20050;-87
2023/09/30 05:13:27;;;;;;;13.43;7.00;;;17.10;90.50;;;;;;4956948;28;20053;-91
2023/09/30 05:15:55;;;;;;;18.55;6.50;;;17.20;90.30;;;;;;4976981;28;20058;-88
2023/09/30 05:18:23;;;;;;;12.52;5.60;;;17.10;90.50;;;;;;5034470;28;20140;-91
2023/09/30 05:20:51;;;;;;;13.50;5.95;;;16.90;90.80;;;;;;5060290;28;20492;-85
2023/09/30 05:23:19;;;;;;;9.57;5.78;;;16.70;91.10;;;;;;5055106;28;20139;-90
2023/09/30 05:25:46;;;;;;;17.05;6.43;;;16.90;91.10;;;;;;5057599;28;20075;-90
2023/09/30 05:28:15;;;;;;;15.27;6.65;;;16.90;91.10;;;;;;5055781;28;20044;-89
2023/09/30 05:30:46;;;;;;;16.52;7.15;;;17.00;91.10;;;;;;5054998;28;20511;-92
2023/09/30 05:33:16;;;;;;;10.73;6.40;;;17.10;90.70;;;;;;5062019;28;20543;-90
2023/09/30 05:35:46;;;;;;;10.15;6.13;;;17.20;90.60;;;;;;5036993;28;20052;-88
2023/09/30 05:38:14;;;;;;;11.90;6.53;;;17.40;90.20;;;;;;5066091;27;20384;-83
2023/09/30 05:40:43;;;;;;;11.98;6.97;;;17.30;90.10;;;;;;5094804;27;20046;-85
2023/09/30 05:43:13;;;;;;;14.52;6.78;;;17.30;90.10;;;;;;5103965;27;20418;-88
2023/09/30 05:45:48;;;;;;;19.88;7.05;;;17.40;89.90;;;;;;5127890;27;20463;-87
2023/09/30 05:48:16;;;;;;;13.63;6.55;;;17.20;90.30;;;;;;5093824;28;20066;-88
2023/09/30 05:50:44;;;;;;;17.58;5.85;;;17.30;90.20;;;;;;5096198;28;20043;-86
2023/09/30 05:53:11;;;;;;;10.05;5.88;;;17.30;90.10;;;;;;5114085;28;20059;-87
2023/09/30 05:55:42;;;;;;;12.02;6.53;;;17.20;90.30;;;;;;5128805;28;20042;-88
2023/09/30 05:58:13;;;;;;;12.70;6.78;;;17.30;90.50;;;;;;5110409;28;20183;-85
2023/09/30 06:00:42;;;;;;;11.98;6.57;;;17.20;90.50;;;;;;5129124;28;20415;-84
2023/09/30 06:09:02;;;;;;;14.38;6.78;;;17.20;90.70;;;;;;5068126;28;20064;-85
2023/09/30 06:13:11;;;;;;;18.33;7.17;;;17.40;90.40;;;;;;5037311;28;20047;-86
2023/09/30 06:24:39;;;;;;;13.10;4.93;;;17.60;89.30;;;;;;4980284;28;20039;-80
2023/09/30 06:27:20;;;;;;;11.38;4.93;;;17.80;88.90;;;;;;4971540;28;20066;-87
2023/09/30 06:30:17;;;;;;;11.43;5.38;;;17.70;89.00;;;;;;4920407;29;20063;-82
2023/09/30 06:37:04;;;;;;;8.65;5.30;;;18.00;89.30;;;;;;4930262;29;20545;-86
2023/09/30 06:39:32;;;;;;;12.68;5.60;;;18.20;87.80;;;;;;4971803;28;20137;-84
2023/09/30 06:41:59;;;;;;;9.35;5.18;;;18.20;87.60;;;;;;4975869;28;20078;-88
2023/09/30 06:44:28;;;;;;;11.82;5.03;;;18.50;87.40;;;;;;4997493;28;20084;-88
2023/09/30 06:46:58;;;;;;;7.30;4.65;;;18.40;86.60;;;;;;4998581;28;20707;-83
2023/09/30 06:49:47;;;;;;;11.00;4.72;;;18.40;86.40;;;;;;4996170;28;20120;-85
2023/09/30 06:52:49;;;;;;;10.10;4.80;;;18.30;86.70;;;;;;4942754;28;20057;-87
2023/09/30 06:56:52;;;;;;;8.98;4.65;;;18.50;86.50;;;;;;4941428;28;20458;-85
2023/09/30 07:00:59;;;;;;;11.13;5.13;;;18.50;86.60;;;;;;4942114;29;20138;-88
2023/09/30 07:04:13;;;;;;;14.57;5.07;;;18.50;86.80;;;;;;4956250;28;20041;-86
2023/09/30 07:07:31;;;;;;;9.02;4.93;;;18.60;87.20;;;;;;4960646;28;20081;-87
2023/09/30 07:11:24;;;;;;;9.20;4.88;;;18.70;86.50;;;;;;4973811;28;20050;-86
2023/09/30 07:15:26;;;;;;;13.10;6.22;;;18.80;86.50;;;;;;5038234;28;20060;-87
2023/09/30 07:19:53;;;;;;;12.10;5.38;;;19.00;86.10;;;;;;5051107;28;20499;-90
2023/09/30 07:23:54;;;;;;;10.23;4.95;;;19.10;86.20;;;;;;4956848;28;20081;-86
2023/09/30 07:31:11;;;;;;;13.57;5.20;;;19.30;86.20;;;;;;4967470;28;20387;-83
2023/09/30 07:33:48;;;;;;;65.82;35.42;;;19.30;86.00;;;;;;4973844;28;20055;-83
2023/09/30 07:36:15;;;;;;;34.17;18.80;;;19.60;86.00;;;;;;4970361;28;20445;-81
2023/09/30 07:38:49;;;;;;;32.22;17.35;;;19.80;85.20;;;;;;4966119;28;20125;-82
2023/09/30 07:41:20;;;;;;;14.10;7.93;;;20.00;84.80;;;;;;4976175;28;20194;-83
2023/09/30 07:44:03;;;;;;;12.63;7.22;;;20.20;84.50;;;;;;4973041;28;20414;-81
2023/09/30 07:46:41;;;;;;;11.43;6.55;;;20.50;83.40;;;;;;4957616;28;20125;-81
2023/09/30 07:49:24;;;;;;;31.75;17.10;;;20.60;83.30;;;;;;4954202;28;20085;-82
2023/09/30 07:52:01;;;;;;;53.63;32.60;;;20.80;82.90;;;;;;4978309;28;20046;-83
2023/09/30 07:54:45;;;;;;;50.17;29.08;;;20.90;82.50;;;;;;4974559;28;20394;-80
2023/09/30 07:57:14;;;;;;;33.08;20.27;;;21.00;82.50;;;;;;4979912;28;20065;-78
2023/09/30 07:59:44;;;;;;;;;;;21.20;82.10;;;;;;5013118;28;20052;-79
2023/09/30 08:02:18;;;;;;;14.15;8.05;;;21.20;82.20;;;;;;5029072;28;19931;-77
2023/09/30 08:04:47;;;;;;;15.52;8.75;;;21.30;81.20;;;;;;5027634;28;20040;-81
2023/09/30 08:07:58;;;;;;;20.67;7.25;;;21.50;80.80;;;;;;5035859;28;20145;-84
2023/09/30 08:10:44;;;;;;;47.30;27.30;;;21.70;80.50;;;;;;5054430;28;20041;-83
2023/09/30 08:14:25;;;;;;;19.73;12.05;;;21.90;80.20;;;;;;5054477;28;20095;-84
2023/09/30 08:17:34;;;;;;;14.97;8.10;;;22.30;79.20;;;;;;5076601;28;20034;-82
2023/09/30 08:20:47;;;;;;;16.98;7.97;;;22.40;78.20;;;;;;5096727;28;20585;-86
2023/09/30 08:24:00;;;;;;;14.48;8.07;;;22.40;78.40;;;;;;5067322;28;20040;-82
2023/09/30 08:27:05;;;;;;;18.13;6.05;;;22.70;77.50;;;;;;5101585;28;20063;-83
2023/09/30 08:29:59;;;;;;;13.77;7.28;;;22.70;76.40;;;;;;5091239;28;20046;-83
2023/09/30 08:33:36;;;;;;;16.55;6.85;;;23.00;76.40;;;;;;5106143;27;20070;-85
2023/09/30 08:41:56;;;;;;;25.48;13.45;;;23.10;75.30;;;;;;5131311;27;20046;-84
2023/09/30 08:45:16;;;;;;;36.60;25.23;;;23.40;74.40;;;;;;5016844;28;20064;-84
2023/09/30 08:49:22;;;;;;;14.95;7.55;;;23.70;73.10;;;;;;5031899;28;20088;-83
2023/09/30 08:58:03;;;;;;;12.88;5.78;;;24.00;71.10;;;;;;4942064;29;20606;-86
2023/09/30 09:01:45;;;;;;;13.32;5.20;;;24.40;70.30;;;;;;4940277;28;20102;-85
2023/09/30 09:06:25;;;;;;;16.15;5.05;;;24.70;69.70;;;;;;4894140;29;20036;-84
2023/09/30 09:10:33;;;;;;;10.98;5.47;;;25.00;67.90;;;;;;4808001;29;20052;-88
2023/09/30 09:28:00;;;;;;;9.05;3.90;;;24.90;64.40;;;;;;4866743;29;20039;-86
2023/09/30 09:32:04;;;;;;;52.90;29.67;;;25.30;63.90;;;;;;4909774;29;20036;-83
2023/09/30 09:35:03;;;;;;;32.67;14.20;;;25.90;63.70;;;;;;4921222;29;20071;-81
2023/09/30 09:38:09;;;;;;;11.90;5.35;;;25.50;63.60;;;;;;4918156;29;20055;-81
2023/09/30 09:41:01;;;;;;;27.20;20.15;;;25.60;61.90;;;;;;4909682;29;20488;-80
2023/09/30 09:44:15;;;;;;;11.73;4.47;;;25.90;61.70;;;;;;4973879;28;20069;-85
2023/09/30 09:47:03;;;;;;;9.82;4.20;;;26.00;60.40;;;;;;5045639;28;20480;-83
2023/09/30 09:50:02;;;;;;;8.10;3.92;;;25.60;61.20;;;;;;5047847;27;20035;-80
2023/09/30 09:53:00;;;;;;;9.07;3.80;;;25.90;59.80;;;;;;5116948;27;20047;-82
2023/09/30 09:56:12;;;;;;;8.63;4.40;;;26.00;59.80;;;;;;5095343;27;20495;-80
2023/09/30 09:58:51;;;;;;;9.77;4.00;;;26.40;59.80;;;;;;5099498;28;20443;-81
2023/09/30 10:02:39;;;;;;;18.35;11.00;;;25.90;59.50;;;;;;5122010;27;20057;-82
2023/09/30 10:05:56;;;;;;;13.27;6.70;;;26.10;60.10;;;;;;5119025;28;20074;-83
2023/09/30 10:08:47;;;;;;;12.73;4.60;;;26.20;57.70;;;;;;5109869;27;20047;-78
2023/09/30 10:11:22;;;;;;;9.48;4.90;;;26.20;60.00;;;;;;5124483;27;20058;-83
2023/09/30 10:14:06;;;;;;;9.30;3.80;;;26.60;59.70;;;;;;5102736;27;20047;-81
2023/09/30 10:17:23;;;;;;;8.95;4.15;;;26.80;58.20;;;;;;5096482;28;20043;-84
2023/09/30 10:20:09;;;;;;;9.40;5.50;;;26.80;57.80;;;;;;5093023;28;20058;-82
2023/09/30 10:31:24;;;;;;;16.00;6.32;;;26.80;58.20;;;;;;5031866;28;20033;-83
2023/09/30 10:35:08;;;;;;;12.15;3.95;;;26.80;57.00;;;;;;5003644;28;20074;-86
2023/09/30 10:38:49;;;;;;;11.38;4.60;;;26.70;58.40;;;;;;5034516;28;20049;-80
2023/09/30 10:45:43;;;;;;;16.27;5.68;;;28.20;57.90;;;;;;5110695;28;20051;-81
2023/09/30 10:48:59;;;;;;;10.10;5.70;;;28.40;57.00;;;;;;5111752;28;20044;-85
2023/09/30 10:52:28;;;;;;;11.35;5.63;;;28.50;56.80;;;;;;5068348;27;20059;-84
2023/09/30 10:56:21;;;;;;;20.33;12.57;;;27.90;55.20;;;;;;5059590;28;20101;-85
2023/09/30 10:59:18;;;;;;;9.77;4.80;;;27.60;55.70;;;;;;5106079;27;20099;-84
2023/09/30 11:01:48;;;;;;;8.95;4.05;;;28.20;55.60;;;;;;5078819;28;20044;-88
2023/09/30 11:04:19;;;;;;;10.95;3.53;;;27.50;55.50;;;;;;5080333;27;20054;-79
2023/09/30 11:06:49;;;;;;;12.65;3.60;;;27.30;56.10;;;;;;5102552;27;20045;-80
2023/09/30 11:09:22;;;;;;;8.13;3.80;;;27.20;57.20;;;;;;5098239;27;20044;-80
2023/09/30 11:11:54;;;;;;;8.32;4.07;;;28.00;58.00;;;;;;5112374;27;20036;-80
2023/09/30 11:14:31;;;;;;;9.93;4.18;;;28.70;58.90;;;;;;5095332;28;20076;-80
2023/09/30 11:17:21;;;;;;;9.88;4.60;;;29.30;58.40;;;;;;5079565;27;20635;-80
2023/09/30 11:19:54;;;;;;;15.15;3.72;;;29.40;57.50;;;;;;5095379;27;20043;-80
2023/09/30 11:22:22;;;;;;;;;;;29.80;54.40;;;;;;5109556;27;20131;-81
2023/09/30 11:24:53;;;;;;;9.98;4.05;;;29.90;56.00;;;;;;5097953;28;20813;-81
2023/09/30 11:27:26;;;;;;;11.68;3.72;;;29.40;53.90;;;;;;5094311;28;20119;-81
2023/09/30 11:30:35;;;;;;;10.85;3.97;;;28.40;54.30;;;;;;5100630;28;20036;-82
2023/09/30 11:34:11;;;;;;;12.20;3.85;;;29.10;55.70;;;;;;5124725;27;20070;-81
2023/09/30 11:37:05;;;;;;;8.98;4.00;;;28.80;57.90;;;;;;5112976;27;20146;-84
2023/09/30 11:39:48;;;;;;;9.68;4.32;;;30.80;57.30;;;;;;5101867;27;20044;-81
2023/09/30 11:42:17;;;;;;;6.15;3.65;;;30.70;55.60;;;;;;5112160;28;20047;-77
2023/09/30 11:44:47;;;;;;;7.75;3.88;;;28.80;53.90;;;;;;5112460;27;20719;-80
2023/09/30 11:47:15;;;;;;;7.80;3.55;;;28.40;53.70;;;;;;5092752;27;20040;-79
2023/09/30 11:49:49;;;;;;;9.75;3.75;;;28.80;54.30;;;;;;5105841;27;20446;-80
2023/09/30 11:52:29;;;;;;;10.63;4.07;;;28.00;55.00;;;;;;5093871;27;20047;-80
2023/09/30 11:55:05;;;;;;;9.38;4.47;;;28.00;55.50;;;;;;5096743;27;20050;-78
2023/09/30 11:57:43;;;;;;;10.52;4.00;;;29.00;56.40;;;;;;5085208;27;20126;-83
2023/09/30 12:00:14;;;;;;;9.32;3.80;;;29.00;52.90;;;;;;5101148;27;20043;-81
2023/09/30 12:02:45;;;;;;;10.30;3.60;;;27.90;54.10;;;;;;5101640;27;20066;-81
2023/09/30 12:05:28;;;;;;;11.07;3.78;;;27.60;54.00;;;;;;5111616;27;20283;-78
2023/09/30 12:07:56;;;;;;;8.65;3.70;;;27.70;55.20;;;;;;5095387;27;20051;-84
2023/09/30 12:10:28;;;;;;;8.25;4.15;;;28.40;55.10;;;;;;5079509;27;20051;-80
2023/09/30 12:13:03;;;;;;;14.90;7.05;;;28.60;55.70;;;;;;5086801;27;20052;-75
2023/09/30 12:15:31;;;;;;;15.20;5.45;;;27.90;53.80;;;;;;5080666;27;20035;-80
2023/09/30 12:17:58;;;;;;;11.50;4.35;;;27.20;55.30;;;;;;5095672;27;20059;-78
2023/09/30 12:20:26;;;;;;;13.77;7.10;;;27.80;55.70;;;;;;5093552;27;20043;-78
2023/09/30 12:23:00;;;;;;;16.40;3.80;;;28.70;57.20;;;;;;5093033;28;20386;-81
2023/09/30 12:25:33;;;;;;;10.05;4.22;;;28.70;53.60;;;;;;5095672;27;20151;-81
2023/09/30 12:28:48;;;;;;;39.97;26.05;;;28.80;54.90;;;;;;5130729;27;20046;-84
2023/09/30 12:32:56;;;;;;;21.30;12.90;;;28.80;55.90;;;;;;5131484;27;20122;-81
2023/09/30 12:35:41;;;;;;;16.77;8.73;;;28.80;54.30;;;;;;5109892;27;20069;-79
2023/09/30 12:38:28;;;;;;;13.32;3.70;;;28.90;53.60;;;;;;5095855;27;20371;-80
2023/09/30 12:41:05;;;;;;;12.65;3.47;;;28.30;52.40;;;;;;5112719;27;20482;-82
2023/09/30 12:43:56;;;;;;;9.93;4.65;;;28.60;52.70;;;;;;5098926;27;20092;-83
2023/09/30 12:46:34;;;;;;;8.75;3.78;;;29.20;53.60;;;;;;5099863;27;20066;-78
2023/09/30 12:49:08;;;;;;;12.15;6.50;;;28.80;52.10;;;;;;5092552;27;20047;-79
2023/09/30 12:51:42;;;;;;;24.13;16.80;;;28.60;51.70;;;;;;5105945;27;20042;-80
2023/09/30 12:54:23;;;;;;;18.45;10.15;;;28.90;51.90;;;;;;5112591;27;20065;-81
2023/09/30 12:57:13;;;;;;;9.45;3.40;;;29.30;51.40;;;;;;5102210;27;20054;-81
2023/09/30 12:59:48;;;;;;;10.13;5.25;;;29.40;50.80;;;;;;5093459;27;20056;-80
2023/09/30 13:02:20;;;;;;;14.52;8.65;;;30.00;53.40;;;;;;5128017;27;20050;-82
2023/09/30 13:04:50;;;;;;;12.90;6.03;;;31.30;53.30;;;;;;5080309;27;20091;-81
2023/09/30 13:07:24;;;;;;;30.35;15.48;;;31.90;51.80;;;;;;5130631;27;20074;-80
2023/09/30 13:09:54;;;;;;;23.73;14.20;;;31.70;49.20;;;;;;5079075;27;20462;-81
2023/09/30 13:12:22;;;;;;;29.98;22.92;;;31.60;52.10;;;;;;5108100;27;20405;-80
2023/09/30 13:14:56;;;;;;;19.50;12.93;;;32.20;52.70;;;;;;5096665;27;20051;-76
2023/09/30 13:17:25;;;;;;;13.98;8.35;;;31.80;51.50;;;;;;5094853;27;20071;-79
2023/09/30 13:19:54;;;;;;;17.10;8.52;;;31.20;52.90;;;;;;5078721;28;20129;-80
2023/09/30 13:22:22;;;;;;;12.15;6.95;;;30.90;53.80;;;;;;5124331;27;20039;-78
2023/09/30 13:24:59;;;;;;;15.82;8.82;;;30.40;52.40;;;;;;5093821;27;20050;-79
2023/09/30 13:27:28;;;;;;;12.23;5.30;;;30.00;55.00;;;;;;5095677;27;20047;-81
2023/09/30 13:30:01;;;;;;;13.80;4.28;;;29.60;54.00;;;;;;5086630;27;20039;-76
2023/09/30 13:32:28;;;;;;;7.47;4.90;;;29.30;52.90;;;;;;5091656;27;20043;-80
2023/09/30 13:35:07;;;;;;;13.35;6.00;;;29.20;54.30;;;;;;5091102;27;20078;-80
2023/09/30 13:37:36;;;;;;;12.35;5.05;;;29.30;55.50;;;;;;5094828;27;20046;-81
2023/09/30 13:40:17;;;;;;;15.30;6.28;;;29.30;55.40;;;;;;5092239;27;20118;-81
2023/09/30 13:43:02;;;;;;;15.40;6.90;;;29.30;55.70;;;;;;5102735;27;20094;-79
2023/09/30 13:45:32;;;;;;;16.25;8.27;;;29.30;56.50;;;;;;5093441;27;20027;-77
2023/09/30 13:48:00;;;;;;;73.47;50.50;;;29.20;55.20;;;;;;5105592;27;20429;-82
2023/09/30 13:50:31;;;;;;;137.93;94.03;;;29.20;56.10;;;;;;5073332;27;20042;-79
2023/09/30 13:53:01;;;;;;;100.38;71.15;;;29.20;54.80;;;;;;5107216;28;20051;-80
2023/09/30 13:55:32;;;;;;;172.05;121.40;;;29.10;53.10;;;;;;5094282;28;20047;-77
2023/09/30 13:58:02;;;;;;;66.97;46.90;;;28.80;54.60;;;;;;5096670;27;20053;-79
2023/09/30 14:00:29;;;;;;;50.70;35.13;;;28.80;54.60;;;;;;5085557;28;20479;-79
2023/09/30 14:03:00;;;;;;;28.02;16.10;;;29.10;55.60;;;;;;5077527;28;20201;-82
2023/09/30 14:05:35;;;;;;;17.00;11.20;;;29.40;53.70;;;;;;5075775;28;20526;-78
2023/09/30 14:08:07;;;;;;;27.95;14.77;;;31.10;53.20;;;;;;5130899;27;20054;-80
2023/09/30 14:10:36;;;;;;;10.75;4.57;;;34.40;49.90;;;;;;5097766;27;20040;-80
2023/09/30 14:13:17;;;;;;;16.33;8.10;;;30.70;47.30;;;;;;5097642;27;20058;-80
2023/09/30 14:16:04;;;;;;;22.90;9.25;;;29.50;51.40;;;;;;5111434;27;20103;-80
2023/09/30 14:18:36;;;;;;;9.00;5.18;;;29.00;53.10;;;;;;5114419;27;20351;-79
2023/09/30 14:21:08;;;;;;;21.92;8.07;;;28.00;50.80;;;;;;5109665;27;20043;-81
2023/09/30 14:23:41;;;;;;;34.58;10.50;;;28.00;52.20;;;;;;5100815;27;20493;-81
2023/09/30 14:26:29;;;;;;;51.33;16.95;;;28.00;53.40;;;;;;5115309;27;20040;-80
2023/09/30 14:29:15;;;;;;;57.97;17.48;;;28.40;54.50;;;;;;5080220;27;20042;-80
2023/09/30 14:31:44;;;;;;;39.10;13.20;;;31.70;52.60;;;;;;5096268;27;20422;-79
2023/09/30 14:34:11;;;;;;;15.88;6.00;;;34.40;48.00;;;;;;5114642;27;20070;-78
2023/09/30 14:36:39;;;;;;;34.65;11.93;;;34.30;46.20;;;;;;5096472;27;20074;-78
2023/09/30 14:39:08;;;;;;;38.22;12.65;;;32.20;48.90;;;;;;5109646;27;20066;-79
2023/09/30 14:41:42;;;;;;;21.77;7.13;;;30.70;50.40;;;;;;5096867;27;20050;-79
2023/09/30 14:44:11;;;;;;;24.67;7.40;;;29.70;50.30;;;;;;5113659;27;20134;-78
2023/09/30 14:46:43;;;;;;;16.63;6.30;;;28.80;51.60;;;;;;5081281;27;20047;-78
2023/09/30 14:49:13;;;;;;;17.80;6.38;;;28.40;52.30;;;;;;5098356;27;20043;-78
2023/09/30 14:51:44;;;;;;;25.70;9.18;;;28.10;52.80;;;;;;5113669;27;20043;-80
2023/09/30 14:54:15;;;;;;;12.27;6.65;;;27.90;54.00;;;;;;5133096;27;20044;-81
2023/09/30 14:56:43;;;;;;;23.38;8.63;;;27.70;53.50;;;;;;5103495;27;20039;-80
2023/09/30 14:59:11;;;;;;;24.33;8.60;;;27.50;54.50;;;;;;5095512;27;20112;-80
2023/09/30 15:01:39;;;;;;;13.52;6.05;;;27.30;54.40;;;;;;5097665;27;20512;-79
2023/09/30 15:04:08;;;;;;;18.48;6.70;;;27.10;53.70;;;;;;5113457;27;20066;-80
2023/09/30 15:06:38;;;;;;;13.70;5.25;;;27.10;54.10;;;;;;5097978;27;20069;-79
2023/09/30 15:09:11;;;;;;;12.63;4.03;;;26.90;53.80;;;;;;5096568;27;20130;-79
2023/09/30 15:11:41;;;;;;;11.45;4.65;;;26.80;53.50;;;;;;5098209;27;20051;-80
2023/09/30 15:14:11;;;;;;;13.02;5.43;;;26.80;54.10;;;;;;5095114;27;20174;-80
2023/09/30 15:16:47;;;;;;;18.63;5.20;;;26.70;54.70;;;;;;5086923;27;20537;-80
2023/09/30 15:19:17;;;;;;;10.45;4.90;;;26.70;54.90;;;;;;5115071;27;20065;-81
2023/09/30 15:21:46;;;;;;;15.27;4.93;;;26.60;54.50;;;;;;5113724;27;20049;-80
2023/09/30 15:24:16;;;;;;;15.93;5.25;;;26.50;54.90;;;;;;5114982;27;20055;-80
2023/09/30 15:26:48;;;;;;;13.20;5.00;;;26.40;54.20;;;;;;5097586;27;20042;-81
2023/09/30 15:29:19;;;;;;;12.50;4.57;;;26.40;54.90;;;;;;5099210;27;20119;-79
2023/09/30 15:31:47;;;;;;;14.68;4.95;;;26.40;54.70;;;;;;5115588;27;20443;-77
2023/09/30 15:34:15;;;;;;;11.88;5.82;;;26.40;54.70;;;;;;5098372;27;20506;-79
2023/09/30 15:36:44;;;;;;;13.63;5.80;;;26.30;54.80;;;;;;5080734;27;20121;-79
2023/09/30 15:39:12;;;;;;;11.77;4.97;;;26.30;54.30;;;;;;5097878;27;20470;-79
2023/09/30 15:41:41;;;;;;;9.77;4.60;;;27.20;53.70;;;;;;5081924;27;20193;-78
2023/09/30 15:44:10;;;;;;;17.73;4.78;;;28.20;52.40;;;;;;5095061;27;20402;-80
2023/09/30 15:46:53;;;;;;;11.98;4.88;;;28.60;52.00;;;;;;5107856;27;20044;-82
2023/09/30 15:49:46;;;;;;;11.82;4.50;;;28.90;51.60;;;;;;5110784;27;20051;-80
2023/09/30 15:52:16;;;;;;;9.48;4.95;;;28.20;52.10;;;;;;5075441;27;20081;-80
2023/09/30 15:54:48;;;;;;;7.13;4.10;;;27.30;53.10;;;;;;5068825;28;20115;-81
2023/09/30 15:57:17;;;;;;;15.00;4.60;;;26.80;53.60;;;;;;5072910;28;20040;-80
2023/09/30 15:59:45;;;;;;;6.85;3.50;;;26.40;54.30;;;;;;5072720;28;20119;-80
2023/09/30 16:02:34;;;;;;;11.15;4.63;;;26.20;54.80;;;;;;5053662;28;20076;-80
2023/09/30 16:05:02;;;;;;;8.85;4.68;;;26.30;54.80;;;;;;5056013;28;20434;-80
2023/09/30 16:07:33;;;;;;;12.30;4.40;;;26.20;54.70;;;;;;5036322;28;21246;-81
2023/09/30 16:10:04;;;;;;;13.52;5.05;;;25.90;54.90;;;;;;5082868;28;20432;-79
2023/09/30 16:12:40;;;;;;;7.65;4.63;;;25.80;55.20;;;;;;5069128;28;20052;-80
2023/09/30 16:15:10;;;;;;;11.20;5.05;;;25.60;55.80;;;;;;5071904;28;20076;-81
2023/09/30 16:17:42;;;;;;;13.10;4.97;;;25.60;56.00;;;;;;5086800;28;20411;-82
2023/09/30 16:20:13;;;;;;;11.63;4.53;;;25.50;55.80;;;;;;5073768;28;20486;-80
2023/09/30 16:22:42;;;;;;;7.22;4.35;;;25.40;56.10;;;;;;5052410;28;20044;-79
2023/09/30 16:25:17;;;;;;;6.93;3.90;;;25.40;56.10;;;;;;5096732;27;20043;-78
2023/09/30 16:27:54;;;;;;;18.83;6.55;;;25.30;56.60;;;;;;5113488;27;20134;-80
2023/09/30 16:30:29;;;;;;;12.00;4.65;;;25.20;56.10;;;;;;5095753;27;20051;-81
2023/09/30 16:33:00;;;;;;;8.95;4.25;;;25.10;56.10;;;;;;5062995;27;20070;-80
2023/09/30 16:35:56;;;;;;;10.23;4.95;;;25.00;56.00;;;;;;5131687;27;20066;-79
2023/09/30 16:38:25;;;;;;;9.65;4.53;;;25.00;56.30;;;;;;5093594;28;20164;-80
2023/09/30 16:40:54;;;;;;;7.30;3.97;;;24.90;56.60;;;;;;5095852;27;20045;-80
2023/09/30 16:43:23;;;;;;;13.65;4.65;;;24.80;56.30;;;;;;5111942;27;20123;-78
2023/09/30 16:45:52;;;;;;;16.23;7.47;;;24.80;56.70;;;;;;5113303;27;20383;-81
2023/09/30 16:48:23;;;;;;;9.50;5.00;;;24.80;56.70;;;;;;5097128;27;20417;-80
2023/09/30 16:50:52;;;;;;;9.82;4.75;;;24.60;57.00;;;;;;5080434;27;20133;-79
2023/09/30 16:53:20;;;;;;;8.98;4.20;;;24.70;56.80;;;;;;5091623;27;20051;-79
2023/09/30 16:55:49;;;;;;;8.52;4.13;;;24.70;56.70;;;;;;5096794;27;20047;-81
2023/09/30 16:58:17;;;;;;;11.77;4.47;;;24.70;56.90;;;;;;5095881;27;20428;-80
2023/09/30 17:00:49;;;;;;;12.75;4.03;;;24.70;57.10;;;;;;5110275;27;20050;-80
2023/09/30 17:03:29;;;;;;;13.38;5.13;;;24.60;57.30;;;;;;5112071;27;20383;-78